createdAt,value
2019-02-26T00:01:23.445Z,101078.03
2019-02-26T00:03:53.998Z,101086.73
2019-02-26T00:06:26.243Z,101091.55
2019-02-26T00:08:59.497Z,101092.54
2019-02-26T00:11:33.415Z,101080.16
2019-02-26T00:14:04.478Z,101077.65
2019-02-26T00:16:37.614Z,101077.29
2019-02-26T00:19:09.826Z,101074.79
2019-02-26T00:21:40.690Z,101080.45
2019-02-26T00:24:12.803Z,101088.19
2019-02-26T00:26:45.172Z,101085.61
2019-02-26T00:29:16.268Z,101083.88
2019-02-26T00:31:48.990Z,101087.33
2019-02-26T00:34:20.672Z,101086.07
2019-02-26T00:36:51.698Z,101091.27
2019-02-26T00:39:23.374Z,101091.72
2019-02-26T00:41:55.778Z,101086.17
2019-02-26T00:44:29.814Z,101070.29
2019-02-26T00:47:02.547Z,101053.03
2019-02-26T00:49:33.198Z,101042.72
2019-02-26T00:52:06.228Z,101039.71
2019-02-26T00:54:36.730Z,101044.02
2019-02-26T00:57:08.619Z,101039.73
2019-02-26T00:59:41.243Z,101049.24
2019-02-26T01:02:12.740Z,101060.04
2019-02-26T01:04:46.281Z,101041.45
2019-02-26T01:07:19.014Z,101035.87
2019-02-26T01:09:51.907Z,101038.43
2019-02-26T01:12:22.778Z,101028.07
2019-02-26T01:14:53.670Z,101019.88
2019-02-26T01:17:24.484Z,101017.70
2019-02-26T01:19:56.490Z,101013.41
2019-02-26T01:22:28.288Z,100999.58
2019-02-26T01:24:59.138Z,100996.13
2019-02-26T01:27:30.138Z,101000.47
2019-02-26T01:30:03.298Z,100992.67
2019-02-26T01:32:33.888Z,100995.27
2019-02-26T01:35:06.010Z,100992.27
2019-02-26T01:37:37.482Z,100985.34
2019-02-26T01:40:13.106Z,100987.52
2019-02-26T01:42:47.328Z,100978.45
2019-02-26T01:45:15.103Z,100966.80
2019-02-26T01:47:48.319Z,100959.86
2019-02-26T01:50:18.551Z,100962.91
2019-02-26T01:52:51.277Z,100954.67
2019-02-26T01:55:23.048Z,100949.50
2019-02-26T01:57:58.464Z,100957.27
2019-02-26T02:00:27.408Z,100945.61
2019-02-26T02:02:58.250Z,100937.42
2019-02-26T02:05:31.276Z,100933.95
2019-02-26T02:08:01.872Z,100900.27
2019-02-26T02:10:32.751Z,100884.30
2019-02-26T02:13:04.794Z,100860.56
2019-02-26T02:15:37.909Z,100836.79
2019-02-26T02:18:09.738Z,100834.20
2019-02-26T02:20:40.588Z,100854.92
2019-02-26T02:23:11.622Z,100853.20
2019-02-26T02:25:43.425Z,100853.66
2019-02-26T02:28:19.206Z,100850.61
2019-02-26T02:30:47.979Z,100845.86
2019-02-26T02:33:23.470Z,100860.56
2019-02-26T02:35:51.870Z,100860.11
2019-02-26T02:38:23.021Z,100857.09
2019-02-26T02:40:54.939Z,100857.55
2019-02-26T02:43:25.512Z,100870.08
2019-02-26T02:45:58.238Z,100876.95
2019-02-26T02:48:27.680Z,100893.38
2019-02-26T02:50:59.713Z,100890.38
2019-02-26T02:53:32.352Z,100883.45
2019-02-26T02:56:03.853Z,100895.95
2019-02-26T02:58:35.050Z,100905.02
2019-02-26T03:01:07.040Z,100910.20
2019-02-26T03:03:38.082Z,100893.81
2019-02-26T03:06:12.254Z,100879.11
2019-02-26T03:08:45.111Z,100879.12
2019-02-26T03:11:14.946Z,100876.53
2019-02-26T03:13:48.336Z,100878.67
2019-02-26T03:16:21.102Z,100889.03
2019-02-26T03:18:51.432Z,100897.68
2019-02-26T03:21:24.559Z,100887.75
2019-02-26T03:23:57.676Z,100888.59
2019-02-26T03:26:28.026Z,100895.95
2019-02-26T03:28:58.700Z,100906.73
2019-02-26T03:31:34.560Z,100907.16
2019-02-26T03:34:08.863Z,100894.20
2019-02-26T03:36:37.365Z,100897.65
2019-02-26T03:39:08.301Z,100895.94
2019-02-26T03:41:39.571Z,100891.17
2019-02-26T03:44:10.484Z,100891.59
2019-02-26T03:46:41.579Z,100882.95
2019-02-26T03:49:12.620Z,100891.16
2019-02-26T03:51:43.723Z,100884.68
2019-02-26T03:54:14.736Z,100880.34
2019-02-26T03:56:45.940Z,100886.82
2019-02-26T03:59:16.884Z,100886.37
2019-02-26T04:01:47.860Z,100877.30
2019-02-26T04:04:20.554Z,100882.91
2019-02-26T04:06:51.580Z,100882.91
2019-02-26T04:09:22.651Z,100877.72
2019-02-26T04:11:55.396Z,100876.42
2019-02-26T04:14:28.278Z,100869.94
2019-02-26T04:17:00.722Z,100857.85
2019-02-26T04:19:30.040Z,100854.38
2019-02-26T04:22:27.840Z,100858.73
2019-02-26T04:25:08.826Z,100863.03
2019-02-26T04:28:10.222Z,100874.25
2019-02-26T04:31:03.515Z,100872.95
2019-02-26T04:34:25.010Z,100857.85
2019-02-26T04:39:50.880Z,100863.04
2019-02-26T04:43:02.047Z,100865.63
2019-02-26T04:46:34.442Z,100859.99
2019-02-26T04:49:04.810Z,100861.70
2019-02-26T04:51:36.425Z,100860.83
2019-02-26T04:54:08.245Z,100861.67
2019-02-26T04:56:40.221Z,100858.20
2019-02-26T04:59:12.543Z,100861.67
2019-02-26T05:01:46.635Z,100862.97
2019-02-26T05:04:16.780Z,100869.45
2019-02-26T05:06:47.670Z,100865.14
2019-02-26T05:09:18.660Z,100864.72
2019-02-26T05:11:49.590Z,100854.80
2019-02-26T05:14:23.457Z,100860.45
2019-02-26T05:16:53.320Z,100854.80
2019-02-26T05:19:24.470Z,100857.43
2019-02-26T05:21:56.802Z,100867.80
2019-02-26T05:24:28.259Z,100865.20
2019-02-26T05:26:59.240Z,100850.56
2019-02-26T05:29:30.171Z,100871.30
2019-02-26T05:32:03.960Z,100864.78
2019-02-26T05:34:33.880Z,100871.69
2019-02-26T05:37:07.884Z,100873.41
2019-02-26T05:39:37.480Z,100882.94
2019-02-26T05:42:08.390Z,100884.66
2019-02-26T05:44:39.479Z,100873.86
2019-02-26T05:47:10.293Z,100863.94
2019-02-26T05:49:43.341Z,100865.66
2019-02-26T05:52:13.914Z,100868.28
2019-02-26T05:54:44.870Z,100874.75
2019-02-26T05:57:26.256Z,100882.97
2019-02-26T05:59:49.030Z,100879.95
2019-02-26T06:02:21.730Z,100884.71
2019-02-26T06:04:52.950Z,100881.70
2019-02-26T06:07:27.060Z,100871.75
2019-02-26T06:09:59.080Z,100869.19
2019-02-26T06:12:30.527Z,100870.45
2019-02-26T06:15:05.153Z,100874.77
2019-02-26T06:17:40.741Z,100868.70
2019-02-26T06:20:17.150Z,100869.55
2019-02-26T06:22:48.000Z,100867.83
2019-02-26T06:25:23.809Z,100878.63
2019-02-26T06:27:52.845Z,100872.53
2019-02-26T06:30:23.959Z,100863.88
2019-02-26T06:32:59.568Z,100853.51
2019-02-26T06:35:27.581Z,100853.97
2019-02-26T06:37:59.595Z,100862.58
2019-02-26T06:40:34.443Z,100856.48
2019-02-26T06:43:03.970Z,100850.87
2019-02-26T06:45:35.498Z,100856.91
2019-02-26T06:48:07.883Z,100837.45
2019-02-26T06:50:41.078Z,100850.37
2019-02-26T06:53:13.542Z,100862.02
2019-02-26T06:55:44.040Z,100856.77
2019-02-26T06:58:25.339Z,100862.33
2019-02-26T07:00:57.600Z,100844.58
2019-02-26T07:03:27.618Z,100842.88
2019-02-26T07:06:01.713Z,100846.34
2019-02-26T07:08:31.239Z,100838.92
2019-02-26T07:11:03.869Z,100838.03
2019-02-26T07:13:36.707Z,100842.28
2019-02-26T07:16:07.870Z,100853.90
2019-02-26T07:18:38.940Z,100844.63
2019-02-26T07:21:10.039Z,100854.05
2019-02-26T07:23:44.599Z,100856.09
2019-02-26T07:26:18.507Z,100852.16
2019-02-26T07:28:52.130Z,100846.02
2019-02-26T07:31:26.438Z,100853.63
2019-02-26T07:34:01.353Z,100851.51
2019-02-26T07:36:35.732Z,100866.16
2019-02-26T07:39:12.842Z,100877.33
2019-02-26T07:41:49.210Z,100884.64
2019-02-26T07:44:23.156Z,100895.11
2019-02-26T07:46:54.010Z,100898.52
2019-02-26T07:49:26.993Z,100893.66
2019-02-26T07:52:02.683Z,100898.46
2019-02-26T07:54:37.750Z,100895.28
2019-02-26T07:57:11.629Z,100883.05
2019-02-26T07:59:44.949Z,100871.02
2019-02-26T08:02:15.636Z,100878.50
2019-02-26T08:04:46.630Z,100867.31
2019-02-26T08:07:19.152Z,100858.67
2019-02-26T08:09:50.850Z,100857.19
2019-02-26T08:12:22.150Z,100865.93
2019-02-26T08:14:53.350Z,100873.83
2019-02-26T08:17:24.268Z,100870.62
2019-02-26T08:19:55.420Z,100870.43
2019-02-26T08:22:27.545Z,100877.70
2019-02-26T08:24:58.980Z,100870.75
2019-02-26T08:27:30.848Z,100862.36
2019-02-26T08:30:02.637Z,100849.16
2019-02-26T08:35:00.649Z,100828.15
2019-02-26T08:37:31.620Z,100822.00
2019-02-26T08:40:02.792Z,100815.83
2019-02-26T08:42:43.615Z,100811.70
2019-02-26T08:45:17.841Z,100799.33
2019-02-26T08:47:49.681Z,100812.87
2019-02-26T08:50:20.432Z,100807.43
2019-02-26T08:52:53.499Z,100817.80
2019-02-26T08:55:24.570Z,100819.99
2019-02-26T08:57:56.517Z,100833.58
2019-02-26T09:00:27.641Z,100829.97
2019-02-26T09:02:58.720Z,100846.23
2019-02-26T09:05:31.706Z,100843.07
2019-02-26T09:08:02.171Z,100836.58
2019-02-26T09:10:33.160Z,100830.02
2019-02-26T09:13:06.157Z,100832.27
2019-02-26T09:15:39.064Z,100831.06
2019-02-26T09:18:09.360Z,100837.34
2019-02-26T09:20:40.350Z,100830.56
2019-02-26T09:23:16.382Z,100824.47
2019-02-26T09:25:46.430Z,100819.56
2019-02-26T09:28:16.530Z,100810.60
2019-02-26T09:30:47.550Z,100818.04
2019-02-26T09:33:19.191Z,100820.16
2019-02-26T09:35:51.935Z,100823.73
2019-02-26T09:38:25.029Z,100832.26
2019-02-26T09:40:57.125Z,100847.50
2019-02-26T09:43:28.161Z,100861.07
2019-02-26T09:45:59.010Z,100864.38
2019-02-26T09:48:29.890Z,100864.98
2019-02-26T09:51:00.920Z,100876.00
2019-02-26T09:53:31.897Z,100873.63
2019-02-26T09:56:02.684Z,100884.68
2019-02-26T09:58:33.501Z,100874.71
2019-02-26T10:01:06.263Z,100891.84
2019-02-26T10:03:39.101Z,100884.47
2019-02-26T10:06:11.424Z,100864.75
2019-02-26T10:08:44.267Z,100869.96
2019-02-26T10:11:18.509Z,100872.23
2019-02-26T10:13:51.198Z,100857.93
2019-02-26T10:16:23.907Z,100858.75
2019-02-26T10:18:56.770Z,100863.44
2019-02-26T10:21:32.206Z,100860.94
2019-02-26T10:24:04.488Z,100855.54
2019-02-26T10:26:36.649Z,100854.97
2019-02-26T10:29:08.146Z,100852.00
2019-02-26T10:31:41.013Z,100853.82
2019-02-26T10:34:15.617Z,100863.13
2019-02-26T10:36:49.321Z,100864.03
2019-02-26T10:39:20.816Z,100866.46
2019-02-26T10:41:52.696Z,100859.22
2019-02-26T10:44:23.722Z,100874.58
2019-02-26T10:46:54.793Z,100865.52
2019-02-26T10:49:25.690Z,100852.35
2019-02-26T10:51:57.858Z,100854.89
2019-02-26T10:54:31.491Z,100853.19
2019-02-26T10:57:06.383Z,100853.28
2019-02-26T10:59:34.850Z,100857.67
2019-02-26T11:02:05.920Z,100859.19
2019-02-26T11:04:41.012Z,100838.60
2019-02-26T11:07:11.515Z,100834.11
2019-02-26T11:09:41.721Z,100832.22
2019-02-26T11:12:12.680Z,100823.88
2019-02-26T11:14:44.327Z,100822.30
2019-02-26T11:17:15.857Z,100828.41
2019-02-26T11:19:48.282Z,100814.18
2019-02-26T11:22:21.292Z,100819.61
2019-02-26T11:24:53.420Z,100815.22
2019-02-26T11:27:24.942Z,100809.86
2019-02-26T11:29:57.678Z,100805.65
2019-02-26T11:32:30.176Z,100806.11
2019-02-26T11:35:02.514Z,100803.22
2019-02-26T11:37:33.101Z,100800.64
2019-02-26T11:40:05.518Z,100801.34
2019-02-26T11:42:36.626Z,100805.85
2019-02-26T11:45:09.748Z,100802.82
2019-02-26T11:47:43.760Z,100806.30
2019-02-26T11:50:16.771Z,100827.41
2019-02-26T11:52:51.908Z,100824.97
2019-02-26T11:55:20.601Z,100808.09
2019-02-26T11:57:52.001Z,100817.91
2019-02-26T12:00:42.883Z,100817.96
2019-02-26T12:03:15.260Z,100829.03
2019-02-26T12:05:45.931Z,100823.45
2019-02-26T12:08:19.358Z,100829.47
2019-02-26T12:10:48.886Z,100829.61
2019-02-26T12:13:22.216Z,100817.15
2019-02-26T12:15:53.000Z,100825.63
2019-02-26T12:18:24.110Z,100827.66
2019-02-26T12:20:55.310Z,100818.39
2019-02-26T12:23:26.611Z,100823.83
2019-02-26T12:25:59.261Z,100813.67
2019-02-26T12:28:32.460Z,100821.22
2019-02-26T12:31:04.293Z,100818.74
2019-02-26T12:33:35.210Z,100826.75
2019-02-26T12:36:07.469Z,100837.84
2019-02-26T12:38:38.501Z,100831.17
2019-02-26T12:41:12.226Z,100836.50
2019-02-26T12:43:45.809Z,100830.37
2019-02-26T12:46:14.750Z,100819.36
2019-02-26T12:48:47.701Z,100822.89
2019-02-26T12:51:19.306Z,100827.37
2019-02-26T12:53:51.248Z,100818.30
2019-02-26T12:56:24.335Z,100813.41
2019-02-26T12:58:54.857Z,100826.30
2019-02-26T13:01:25.890Z,100822.86
2019-02-26T13:03:56.839Z,100818.50
2019-02-26T13:06:27.798Z,100824.84
2019-02-26T13:08:58.698Z,100822.44
2019-02-26T13:11:29.690Z,100814.02
2019-02-26T13:14:01.198Z,100826.28
2019-02-26T13:16:32.081Z,100834.95
2019-02-26T13:19:04.897Z,100841.53
2019-02-26T13:21:35.780Z,100837.08
2019-02-26T13:24:13.916Z,100847.58
2019-02-26T13:26:42.415Z,100836.08
2019-02-26T13:29:12.121Z,100829.32
2019-02-26T13:31:55.560Z,100829.14
2019-02-26T13:34:15.699Z,100847.41
2019-02-26T13:36:52.748Z,100831.61
2019-02-26T13:39:26.117Z,100823.47
2019-02-26T13:41:58.495Z,100827.98
2019-02-26T13:44:25.550Z,100823.16
2019-02-26T13:46:57.578Z,100823.42
2019-02-26T13:49:28.530Z,100829.84
2019-02-26T13:51:59.479Z,100815.27
2019-02-26T13:54:30.560Z,100824.50
2019-02-26T13:57:01.683Z,100825.40
2019-02-26T13:59:32.778Z,100831.22
2019-02-26T14:02:04.880Z,100833.95
2019-02-26T14:04:35.940Z,100837.22
2019-02-26T14:07:06.881Z,100826.86
2019-02-26T14:09:37.992Z,100831.64
2019-02-26T14:12:08.961Z,100827.41
2019-02-26T14:14:40.150Z,100821.62
2019-02-26T14:17:11.258Z,100826.84
2019-02-26T14:19:42.338Z,100832.81
2019-02-26T14:22:13.228Z,100837.79
2019-02-26T14:24:44.262Z,100841.34
2019-02-26T14:27:15.385Z,100847.12
2019-02-26T14:29:46.428Z,100845.72
2019-02-26T14:32:17.480Z,100852.83
2019-02-26T14:34:48.678Z,100847.92
2019-02-26T14:37:19.638Z,100847.69
2019-02-26T14:39:50.600Z,100846.14
2019-02-26T14:42:21.761Z,100863.50
2019-02-26T14:44:52.890Z,100867.11
2019-02-26T14:47:23.800Z,100864.13
2019-02-26T14:49:54.783Z,100865.25
2019-02-26T14:52:25.780Z,100870.15
2019-02-26T14:54:56.979Z,100880.58
2019-02-26T14:57:28.030Z,100884.92
2019-02-26T14:59:59.261Z,100889.55
2019-02-26T15:02:30.638Z,100884.97
2019-02-26T15:05:01.740Z,100879.03
2019-02-26T15:07:32.808Z,100872.13
2019-02-26T15:10:03.804Z,100879.36
2019-02-26T15:12:34.670Z,100887.83
2019-02-26T15:15:05.995Z,100903.17
2019-02-26T15:17:36.910Z,100898.03
2019-02-26T15:20:09.631Z,100891.45
2019-02-26T15:22:40.611Z,100889.74
2019-02-26T15:25:22.269Z,100878.91
2019-02-26T15:27:53.541Z,100898.27
2019-02-26T15:30:25.201Z,100898.88
2019-02-26T15:32:56.742Z,100891.94
2019-02-26T15:35:28.653Z,100895.46
2019-02-26T15:37:59.999Z,100898.52
2019-02-26T15:40:31.300Z,100897.73
2019-02-26T15:43:02.642Z,100899.05
2019-02-26T15:45:33.730Z,100900.83
2019-02-26T15:48:04.669Z,100900.83
2019-02-26T15:50:37.743Z,100902.97
2019-02-26T15:53:09.729Z,100909.58
2019-02-26T15:55:41.392Z,100909.61
2019-02-26T15:58:12.847Z,100901.30
2019-02-26T16:00:44.400Z,100904.34
2019-02-26T16:03:15.409Z,100911.02
2019-02-26T16:05:46.979Z,100905.05
2019-02-26T16:08:18.021Z,100902.46
2019-02-26T16:10:48.963Z,100906.02
2019-02-26T16:13:20.091Z,100908.16
2019-02-26T16:15:53.719Z,100912.19
2019-02-26T16:18:27.626Z,100927.01
2019-02-26T16:20:59.976Z,100914.92
2019-02-26T16:23:37.980Z,100916.30
2019-02-26T16:26:09.890Z,100920.72
2019-02-26T16:28:41.002Z,100927.76
2019-02-26T16:31:11.914Z,100928.22
2019-02-26T16:33:46.425Z,100925.36
2019-02-26T16:36:15.655Z,100930.16
2019-02-26T16:38:50.708Z,100938.44
2019-02-26T16:41:19.211Z,100948.92
2019-02-26T16:43:51.835Z,100941.61
2019-02-26T16:46:23.461Z,100944.75
2019-02-26T16:48:54.399Z,100937.39
2019-02-26T16:51:25.222Z,100946.30
2019-02-26T16:53:56.158Z,100958.89
2019-02-26T16:56:27.098Z,100956.34
2019-02-26T16:58:58.229Z,100948.18
2019-02-26T17:01:29.679Z,100951.77
2019-02-26T17:04:01.191Z,100954.91
2019-02-26T17:06:32.279Z,100953.62
2019-02-26T17:09:04.180Z,100964.62
2019-02-26T17:11:36.731Z,100961.37
2019-02-26T17:14:07.780Z,100965.85
2019-02-26T17:16:40.021Z,100978.99
2019-02-26T17:19:11.061Z,100971.27
2019-02-26T17:21:42.361Z,100967.94
2019-02-26T17:24:13.499Z,100969.83
2019-02-26T17:26:44.391Z,100966.49
2019-02-26T17:29:16.871Z,100982.67
2019-02-26T17:31:48.951Z,100972.37
2019-02-26T17:34:23.416Z,100980.23
2019-02-26T17:36:53.689Z,100983.38
2019-02-26T17:39:27.888Z,100976.60
2019-02-26T17:41:58.655Z,100978.41
2019-02-26T17:44:30.078Z,100987.66
2019-02-26T17:47:01.338Z,100998.23
2019-02-26T17:49:33.683Z,101000.92
2019-02-26T17:52:06.539Z,101004.45
2019-02-26T17:54:38.620Z,101013.19
2019-02-26T17:57:09.723Z,101018.96
2019-02-26T17:59:40.891Z,101020.77
2019-02-26T18:02:12.829Z,101017.77
2019-02-26T18:04:44.990Z,101023.45
2019-02-26T18:07:19.579Z,101030.02
2019-02-26T18:09:50.665Z,101040.98
2019-02-26T18:12:21.804Z,101040.63
2019-02-26T18:14:53.021Z,101040.19
2019-02-26T18:17:24.550Z,101034.06
2019-02-26T18:19:55.598Z,101041.44
2019-02-26T18:22:27.140Z,101041.44
2019-02-26T18:24:58.595Z,101051.45
2019-02-26T18:27:30.610Z,101038.39
2019-02-26T18:30:01.688Z,101037.99
2019-02-26T18:32:33.169Z,101044.43
2019-02-26T18:35:04.040Z,101041.38
2019-02-26T18:37:36.698Z,101049.20
2019-02-26T18:40:08.111Z,101054.35
2019-02-26T18:42:41.347Z,101060.42
2019-02-26T18:45:14.620Z,101065.23
2019-02-26T18:47:47.585Z,101062.63
2019-02-26T18:50:18.969Z,101071.30
2019-02-26T18:52:49.772Z,101064.78
2019-02-26T18:55:20.812Z,101059.63
2019-02-26T18:57:52.008Z,101054.86
2019-02-26T19:00:25.864Z,101062.27
2019-02-26T19:02:58.670Z,101060.14
2019-02-26T19:05:29.643Z,101067.09
2019-02-26T19:08:00.982Z,101068.83
2019-02-26T19:10:31.921Z,101048.47
2019-02-26T19:13:03.689Z,101059.83
2019-02-26T19:15:34.841Z,101050.30
2019-02-26T19:18:06.038Z,101042.56
2019-02-26T19:20:38.528Z,101038.65
2019-02-26T19:23:10.261Z,101040.87
2019-02-26T19:25:42.183Z,101044.81
2019-02-26T19:28:13.461Z,101045.27
2019-02-26T19:30:44.689Z,101045.30
2019-02-26T19:33:15.940Z,101053.14
2019-02-26T19:35:47.110Z,101061.45
2019-02-26T19:38:17.963Z,101052.73
2019-02-26T19:40:49.258Z,101060.14
2019-02-26T19:43:20.519Z,101063.16
2019-02-26T19:45:51.510Z,101058.84
2019-02-26T19:48:22.660Z,101060.66
2019-02-26T19:50:53.592Z,101053.70
2019-02-26T19:53:26.770Z,101046.80
2019-02-26T19:55:57.848Z,101033.44
2019-02-26T19:58:31.704Z,101044.44
2019-02-26T20:01:02.871Z,101049.74
2019-02-26T20:03:39.998Z,101052.95
2019-02-26T20:06:06.509Z,101053.93
2019-02-26T20:08:37.751Z,101052.66
2019-02-26T20:11:09.691Z,101045.79
2019-02-26T20:13:42.124Z,101044.59
2019-02-26T20:16:13.424Z,101046.40
2019-02-26T20:18:44.590Z,101057.34
2019-02-26T20:21:16.886Z,101053.89
2019-02-26T20:23:48.678Z,101051.41
2019-02-26T20:26:19.982Z,101056.23
2019-02-26T20:28:51.001Z,101061.06
2019-02-26T20:31:22.458Z,101064.56
2019-02-26T20:33:54.013Z,101065.92
2019-02-26T20:36:25.293Z,101059.42
2019-02-26T20:38:56.171Z,101062.49
2019-02-26T20:41:27.700Z,101059.07
2019-02-26T20:43:59.140Z,101060.84
2019-02-26T20:46:30.202Z,101058.25
2019-02-26T20:49:01.380Z,101055.66
2019-02-26T20:51:33.708Z,101058.30
2019-02-26T20:54:04.791Z,101061.79
2019-02-26T20:56:36.191Z,101067.45
2019-02-26T20:59:07.215Z,101068.34
2019-02-26T21:01:40.093Z,101066.63
2019-02-26T21:04:10.784Z,101072.28
2019-02-26T21:06:41.668Z,101074.05
2019-02-26T21:09:12.864Z,101081.88
2019-02-26T21:11:44.301Z,101086.62
2019-02-26T21:14:15.582Z,101083.18
2019-02-26T21:16:46.526Z,101075.00
2019-02-26T21:19:17.810Z,101084.97
2019-02-26T21:21:49.574Z,101077.59
2019-02-26T21:24:20.430Z,101082.83
2019-02-26T21:26:52.916Z,101075.03
2019-02-26T21:29:24.255Z,101075.49
2019-02-26T21:31:55.170Z,101079.38
2019-02-26T21:34:26.564Z,101081.13
2019-02-26T21:37:00.067Z,101080.71
2019-02-26T21:39:30.874Z,101086.80
2019-02-26T21:42:01.760Z,101078.14
2019-02-26T21:44:32.652Z,101086.83
2019-02-26T21:47:03.450Z,101090.28
2019-02-26T21:49:34.380Z,101087.72
2019-02-26T21:52:08.746Z,101088.55
2019-02-26T21:54:40.196Z,101085.98
2019-02-26T21:57:10.988Z,101090.33
2019-02-26T21:59:49.873Z,101089.89
2019-02-26T22:02:18.634Z,101093.78
2019-02-26T22:04:47.320Z,101095.07
2019-02-26T22:07:19.081Z,101094.64
2019-02-26T22:09:51.250Z,101098.53
2019-02-26T22:12:24.137Z,101093.34
2019-02-26T22:14:56.140Z,101086.85
2019-02-26T22:17:27.169Z,101080.81
2019-02-26T22:19:58.098Z,101089.47
2019-02-26T22:22:28.911Z,101088.58
2019-02-26T22:25:09.121Z,101095.52
2019-02-26T22:27:33.716Z,101098.53
2019-02-26T22:30:06.916Z,101101.98
2019-02-26T22:32:38.825Z,101104.61
2019-02-26T22:35:10.359Z,101111.92
2019-02-26T22:37:42.320Z,101103.72
2019-02-26T22:40:13.365Z,101106.77
2019-02-26T22:42:44.437Z,101105.01
2019-02-26T22:45:15.520Z,101108.92
2019-02-26T22:47:46.503Z,101104.59
2019-02-26T22:50:17.484Z,101111.52
2019-02-26T22:52:48.251Z,101112.80
2019-02-26T22:55:19.188Z,101111.94
2019-02-26T22:57:50.270Z,101119.28
2019-02-26T23:01:00.030Z,101114.50
2019-02-26T23:03:32.951Z,101120.55
2019-02-26T23:06:04.852Z,101116.22
2019-02-26T23:08:36.250Z,101122.27
2019-02-26T23:11:07.968Z,101125.73
2019-02-26T23:13:39.658Z,101124.00
2019-02-26T23:16:11.180Z,101133.50
2019-02-26T23:18:42.851Z,101130.04
2019-02-26T23:21:16.265Z,101132.64
2019-02-26T23:23:48.569Z,101129.20
2019-02-26T23:26:19.998Z,101138.23
2019-02-26T23:28:54.490Z,101138.67
2019-02-26T23:31:25.170Z,101128.73
2019-02-26T23:33:56.572Z,101137.36
2019-02-26T23:36:28.539Z,101135.61
2019-02-26T23:39:00.281Z,101140.79
2019-02-26T23:41:33.792Z,101145.55
2019-02-26T23:44:05.648Z,101139.47
2019-02-26T23:46:37.227Z,101141.20
2019-02-26T23:49:08.658Z,101142.06
2019-02-26T23:51:40.320Z,101146.36
2019-02-26T23:54:12.690Z,101148.08
2019-02-26T23:56:42.796Z,101144.19
2019-02-26T23:59:14.024Z,101147.17
